Time;durP1;ratioP1;P1;durP2;ratioP2;P2;SDS_P1;SDS_P2;PMS_P1;PMS_P2;Temp;Humidity;BMP_temperature;BMP_pressure;BME280_temperature;BME280_humidity;BME280_pressure;Samples;Min_cycle;Max_cycle;Signal;HPM_P1;HPM_P2
2021/09/26 00:00:53;;;;;;;14.02;11.27;;;14.00;99.90;;;;;;5014657;28;20057;-75
2021/09/26 00:03:19;;;;;;;12.18;10.45;;;14.00;99.90;;;;;;5032481;28;20502;-75
2021/09/26 00:05:44;;;;;;;13.85;11.35;;;14.10;99.90;;;;;;5015097;28;20475;-76
2021/09/26 00:08:10;;;;;;;12.73;10.40;;;14.10;99.90;;;;;;5032530;28;20479;-75
2021/09/26 00:10:35;;;;;;;12.90;10.73;;;14.10;99.90;;;;;;5014477;28;20025;-75
2021/09/26 00:13:01;;;;;;;11.65;10.25;;;14.00;99.90;;;;;;5014637;28;20033;-76
2021/09/26 00:15:26;;;;;;;11.13;9.48;;;14.00;99.90;;;;;;5032392;28;20025;-76
2021/09/26 00:17:53;;;;;;;11.98;8.98;;;14.00;99.90;;;;;;5032481;28;20064;-76
2021/09/26 00:20:21;;;;;;;10.75;8.98;;;14.10;99.90;;;;;;5032291;28;20040;-76
2021/09/26 00:22:46;;;;;;;10.50;8.93;;;14.20;99.90;;;;;;5032377;28;20021;-77
2021/09/26 00:25:14;;;;;;;13.05;9.48;;;14.20;99.90;;;;;;5014738;28;20442;-77
2021/09/26 00:27:40;;;;;;;11.10;9.98;;;14.10;99.90;;;;;;5032488;28;20021;-77
2021/09/26 00:30:07;;;;;;;11.68;10.10;;;13.80;99.90;;;;;;5015011;28;20021;-77
2021/09/26 00:32:33;;;;;;;11.07;9.98;;;13.60;99.90;;;;;;5015122;28;20022;-77
2021/09/26 00:34:58;;;;;;;10.65;9.50;;;13.60;99.90;;;;;;5032432;28;20022;-76
2021/09/26 00:37:24;;;;;;;13.30;9.82;;;13.60;99.90;;;;;;5014536;28;20402;-77
2021/09/26 00:39:49;;;;;;;11.38;9.02;;;13.60;99.90;;;;;;5032437;28;20068;-77
2021/09/26 00:42:15;;;;;;;13.25;10.18;;;13.60;99.90;;;;;;5014305;28;20120;-77
2021/09/26 00:44:41;;;;;;;11.35;8.98;;;13.70;99.90;;;;;;5033489;28;20061;-77
2021/09/26 00:47:06;;;;;;;12.65;8.80;;;13.80;99.90;;;;;;5015911;28;20036;-77
2021/09/26 00:49:32;;;;;;;14.20;9.23;;;13.80;99.90;;;;;;5038811;28;20063;-77
2021/09/26 00:51:58;;;;;;;10.32;8.48;;;13.80;99.90;;;;;;5054387;28;20033;-77
2021/09/26 00:54:24;;;;;;;9.48;8.45;;;13.80;99.90;;;;;;5035841;28;20372;-77
2021/09/26 00:56:50;;;;;;;11.70;9.55;;;13.70;99.90;;;;;;5026141;28;20095;-76
2021/09/26 00:59:18;;;;;;;10.45;9.30;;;13.60;99.90;;;;;;5032036;28;20029;-77
2021/09/26 01:01:44;;;;;;;13.07;9.63;;;13.60;99.90;;;;;;5015833;28;20479;-77
2021/09/26 01:04:10;;;;;;;9.93;8.90;;;13.60;99.90;;;;;;5013956;28;20049;-76
2021/09/26 01:06:39;;;;;;;10.45;9.02;;;13.70;99.90;;;;;;5031710;28;20027;-75
2021/09/26 01:09:27;;;;;;;11.25;9.48;;;13.70;99.90;;;;;;5013987;28;20053;-75
2021/09/26 01:12:33;;;;;;;9.88;8.88;;;13.80;99.90;;;;;;5031374;28;20075;-75
2021/09/26 01:15:13;;;;;;;10.90;9.43;;;13.80;99.90;;;;;;4975686;28;20060;-75
2021/09/26 01:18:04;;;;;;;10.30;9.20;;;13.80;99.90;;;;;;5031895;28;20033;-77
2021/09/26 01:20:52;;;;;;;11.98;9.60;;;13.80;99.90;;;;;;5000276;28;20099;-77
2021/09/26 01:23:21;;;;;;;10.98;9.27;;;13.70;99.90;;;;;;5020179;28;20026;-77
2021/09/26 01:26:11;;;;;;;11.00;9.43;;;13.70;99.90;;;;;;5032124;28;20399;-76
2021/09/26 01:28:40;;;;;;;12.45;9.00;;;13.90;99.90;;;;;;5033488;28;20048;-77
2021/09/26 01:31:07;;;;;;;11.35;8.65;;;13.70;99.90;;;;;;5035466;28;20037;-77
2021/09/26 01:33:44;;;;;;;9.90;8.90;;;13.80;99.90;;;;;;5029438;28;20035;-77
2021/09/26 01:36:21;;;;;;;12.10;10.52;;;13.90;99.90;;;;;;5035080;28;20410;-76
2021/09/26 01:39:05;;;;;;;11.75;10.00;;;14.10;99.90;;;;;;5051504;28;20108;-75
2021/09/26 01:41:33;;;;;;;10.45;9.43;;;14.20;99.90;;;;;;5054905;28;20025;-75
2021/09/26 01:44:01;;;;;;;9.40;8.38;;;14.40;99.90;;;;;;5055264;28;20021;-75
2021/09/26 01:46:31;;;;;;;11.23;8.63;;;14.30;99.90;;;;;;5055334;28;20013;-76
2021/09/26 01:49:10;;;;;;;10.65;9.18;;;14.30;99.90;;;;;;5055327;28;20108;-75
2021/09/26 01:51:38;;;;;;;11.05;9.27;;;14.30;99.90;;;;;;5035076;28;20068;-75
2021/09/26 01:54:08;;;;;;;10.50;9.05;;;14.40;99.90;;;;;;5017245;28;20026;-75
2021/09/26 01:56:35;;;;;;;10.07;9.07;;;14.40;99.90;;;;;;5017311;28;20026;-75
2021/09/26 01:59:02;;;;;;;10.38;9.27;;;14.40;99.90;;;;;;5035032;28;20037;-75
2021/09/26 02:01:27;;;;;;;12.38;9.02;;;14.50;99.90;;;;;;5016952;28;20029;-75
2021/09/26 02:03:55;;;;;;;10.55;8.85;;;14.20;99.90;;;;;;5035271;28;20639;-76
2021/09/26 02:06:22;;;;;;;12.18;9.75;;;14.20;99.90;;;;;;5035127;28;20025;-76
2021/09/26 02:08:48;;;;;;;12.65;10.38;;;14.10;99.90;;;;;;5034868;28;20022;-76
2021/09/26 02:11:15;;;;;;;12.10;9.52;;;14.20;99.90;;;;;;5016748;28;20028;-76
2021/09/26 02:13:44;;;;;;;11.38;9.40;;;14.20;99.90;;;;;;5034592;28;20041;-76
2021/09/26 02:16:11;;;;;;;11.32;9.65;;;14.40;99.90;;;;;;5034766;28;20037;-76
2021/09/26 02:18:39;;;;;;;12.00;9.35;;;14.40;99.90;;;;;;5034737;28;20026;-78
2021/09/26 02:21:06;;;;;;;12.10;9.45;;;14.40;99.90;;;;;;5034381;28;20025;-78
2021/09/26 02:23:35;;;;;;;12.23;10.52;;;14.40;99.90;;;;;;5016814;28;20486;-77
2021/09/26 02:26:02;;;;;;;11.40;9.88;;;14.40;99.90;;;;;;5034632;28;20475;-77
2021/09/26 02:28:29;;;;;;;11.20;9.27;;;14.40;99.90;;;;;;5016857;28;20026;-78
2021/09/26 02:30:54;;;;;;;10.77;9.52;;;14.30;99.90;;;;;;5036311;28;20029;-78
2021/09/26 02:33:20;;;;;;;11.93;9.65;;;14.40;99.90;;;;;;5035638;28;20029;-77
2021/09/26 02:35:46;;;;;;;14.18;10.70;;;14.60;99.90;;;;;;5016993;28;20034;-77
2021/09/26 02:38:11;;;;;;;12.23;10.05;;;14.80;99.90;;;;;;5048013;28;20090;-76
2021/09/26 02:40:37;;;;;;;10.63;8.40;;;14.60;99.90;;;;;;5016349;28;20064;-76
2021/09/26 02:43:32;;;;;;;12.80;9.13;;;14.20;99.90;;;;;;5016228;28;20029;-77
2021/09/26 02:46:06;;;;;;;12.55;9.63;;;14.20;99.90;;;;;;4963411;28;20477;-75
2021/09/26 02:48:33;;;;;;;11.20;9.63;;;14.00;99.90;;;;;;5016426;28;20030;-75
2021/09/26 02:51:00;;;;;;;11.13;9.90;;;13.90;99.90;;;;;;5049655;28;20079;-74
2021/09/26 02:53:27;;;;;;;10.60;9.35;;;13.90;99.90;;;;;;5053555;28;20033;-76
2021/09/26 02:55:54;;;;;;;14.10;10.55;;;13.90;99.90;;;;;;5037232;28;20021;-76
2021/09/26 02:58:20;;;;;;;10.70;9.45;;;14.00;99.90;;;;;;5016250;28;20029;-77
2021/09/26 03:00:48;;;;;;;12.07;9.98;;;14.00;99.90;;;;;;5033590;28;20026;-78
2021/09/26 03:03:19;;;;;;;10.85;9.75;;;14.00;99.90;;;;;;5044209;28;20025;-77
2021/09/26 03:05:46;;;;;;;10.73;9.63;;;14.00;99.90;;;;;;5018466;28;20017;-75
2021/09/26 03:08:13;;;;;;;12.77;9.63;;;14.00;99.90;;;;;;5033796;28;20036;-75
2021/09/26 03:10:42;;;;;;;14.05;9.80;;;14.00;99.90;;;;;;5033445;28;20423;-76
2021/09/26 03:13:08;;;;;;;13.98;10.27;;;14.10;99.90;;;;;;5033677;28;20061;-76
2021/09/26 03:15:33;;;;;;;11.55;9.38;;;14.00;99.90;;;;;;5033631;28;20481;-76
2021/09/26 03:17:59;;;;;;;12.18;9.60;;;14.10;99.90;;;;;;5033678;28;20124;-75
2021/09/26 03:20:24;;;;;;;13.05;9.98;;;14.00;99.90;;;;;;5033361;28;20030;-75
2021/09/26 03:22:50;;;;;;;12.43;9.82;;;13.90;99.90;;;;;;5015395;28;20045;-75
2021/09/26 03:25:17;;;;;;;10.93;9.68;;;14.00;99.90;;;;;;5015786;28;20030;-75
2021/09/26 03:27:43;;;;;;;11.52;9.48;;;14.00;99.90;;;;;;5015760;28;20021;-75
2021/09/26 03:30:10;;;;;;;13.57;9.65;;;14.00;99.90;;;;;;5015649;28;20476;-75
2021/09/26 03:32:36;;;;;;;10.85;9.52;;;14.00;99.90;;;;;;5015270;28;20431;-75
2021/09/26 03:35:04;;;;;;;11.32;8.90;;;13.90;99.90;;;;;;5044145;28;20032;-75
2021/09/26 03:37:29;;;;;;;12.95;10.35;;;13.80;99.90;;;;;;5051312;28;20025;-75
2021/09/26 03:39:55;;;;;;;10.98;9.85;;;14.00;99.90;;;;;;5017451;28;20030;-75
2021/09/26 03:42:21;;;;;;;11.13;10.02;;;14.10;99.90;;;;;;5032900;28;20021;-75
2021/09/26 03:44:46;;;;;;;12.32;11.02;;;13.90;99.90;;;;;;5032901;28;20479;-75
2021/09/26 03:47:12;;;;;;;14.55;12.07;;;13.90;99.90;;;;;;5032992;28;20040;-76
2021/09/26 03:49:38;;;;;;;12.98;10.45;;;14.00;99.90;;;;;;5046261;28;20040;-76
2021/09/26 03:52:03;;;;;;;12.18;10.68;;;13.80;99.90;;;;;;5032830;28;20021;-75
2021/09/26 03:54:29;;;;;;;13.00;10.02;;;13.90;99.90;;;;;;5032623;28;20128;-74
2021/09/26 03:56:55;;;;;;;12.38;10.38;;;13.70;99.90;;;;;;5032822;28;20087;-76
2021/09/26 03:59:20;;;;;;;12.18;10.40;;;13.70;99.90;;;;;;5032871;28;20037;-77
2021/09/26 04:01:46;;;;;;;12.70;10.38;;;13.70;99.90;;;;;;5032486;28;20116;-77
2021/09/26 04:04:12;;;;;;;12.95;11.05;;;13.60;99.90;;;;;;5031320;28;20061;-76
2021/09/26 04:06:38;;;;;;;11.90;10.68;;;13.60;99.90;;;;;;5015377;28;20053;-77
2021/09/26 04:09:05;;;;;;;14.40;11.10;;;13.70;99.90;;;;;;5032607;28;20021;-77
2021/09/26 04:11:31;;;;;;;14.30;11.43;;;13.60;99.90;;;;;;5014613;28;20033;-77
2021/09/26 04:13:56;;;;;;;14.02;11.38;;;13.60;99.90;;;;;;5032484;28;20041;-76
2021/09/26 04:16:23;;;;;;;15.05;11.18;;;13.60;99.90;;;;;;5032480;28;20025;-75
2021/09/26 04:18:48;;;;;;;17.73;12.20;;;13.70;99.90;;;;;;5032253;28;20467;-75
2021/09/26 04:21:18;;;;;;;13.40;11.38;;;13.70;99.90;;;;;;5032187;28;20053;-75
2021/09/26 04:23:44;;;;;;;12.55;11.23;;;13.70;99.90;;;;;;5032275;28;20025;-76
2021/09/26 04:26:10;;;;;;;17.58;12.65;;;13.70;99.90;;;;;;5032070;28;20518;-77
2021/09/26 04:28:35;;;;;;;14.25;12.30;;;13.70;99.90;;;;;;5027635;28;20022;-76
2021/09/26 04:31:01;;;;;;;14.27;12.00;;;13.70;99.90;;;;;;5032076;28;20387;-75
2021/09/26 04:33:26;;;;;;;14.43;11.98;;;13.70;99.90;;;;;;5014290;28;20503;-76
2021/09/26 04:35:52;;;;;;;13.77;11.52;;;13.60;99.90;;;;;;5032112;28;20048;-76
2021/09/26 04:38:17;;;;;;;14.48;12.50;;;13.70;99.90;;;;;;5032082;28;20025;-79
2021/09/26 04:40:43;;;;;;;13.95;11.52;;;13.70;99.90;;;;;;5014371;28;20075;-76
2021/09/26 04:43:09;;;;;;;14.02;12.05;;;13.60;99.90;;;;;;5032084;28;20022;-77
2021/09/26 04:45:34;;;;;;;13.18;11.38;;;13.50;99.90;;;;;;5044150;28;20071;-78
2021/09/26 04:48:00;;;;;;;12.80;11.38;;;13.40;99.90;;;;;;5034075;28;20025;-78
2021/09/26 04:50:26;;;;;;;12.63;11.15;;;13.40;99.90;;;;;;5044710;28;20094;-78
2021/09/26 04:52:51;;;;;;;14.07;11.32;;;13.40;99.90;;;;;;5033957;28;20106;-78
2021/09/26 04:55:17;;;;;;;13.13;11.20;;;13.40;99.90;;;;;;5051955;28;20422;-78
2021/09/26 04:57:42;;;;;;;13.57;11.70;;;13.20;99.90;;;;;;5016534;28;20506;-77
2021/09/26 05:00:09;;;;;;;13.32;11.93;;;13.20;99.90;;;;;;5039298;28;20021;-78
2021/09/26 05:02:34;;;;;;;13.98;11.35;;;13.30;99.90;;;;;;5044771;28;20164;-75
2021/09/26 05:05:00;;;;;;;14.35;11.40;;;13.20;99.90;;;;;;5043147;28;20120;-75
2021/09/26 05:07:26;;;;;;;12.68;10.80;;;13.50;99.90;;;;;;5038963;28;20117;-77
2021/09/26 05:09:51;;;;;;;14.40;11.60;;;13.50;99.90;;;;;;5040749;28;20069;-77
2021/09/26 05:12:17;;;;;;;13.48;12.07;;;13.60;99.90;;;;;;5027457;28;20030;-76
2021/09/26 05:14:42;;;;;;;12.52;11.00;;;13.60;99.90;;;;;;5031339;28;20092;-75
2021/09/26 05:17:08;;;;;;;13.35;11.60;;;13.60;99.90;;;;;;5035784;28;20021;-77
2021/09/26 05:19:33;;;;;;;12.93;11.32;;;13.50;99.90;;;;;;5023364;28;20041;-76
2021/09/26 05:22:00;;;;;;;12.10;10.43;;;13.60;99.90;;;;;;5044860;28;20030;-77
2021/09/26 05:24:25;;;;;;;12.32;11.05;;;13.70;99.90;;;;;;5042252;28;20048;-76
2021/09/26 05:26:51;;;;;;;14.20;10.23;;;13.80;99.90;;;;;;5020487;28;20110;-76
2021/09/26 05:29:17;;;;;;;12.00;10.63;;;13.90;99.90;;;;;;5041031;28;20030;-76
2021/09/26 05:31:42;;;;;;;15.68;10.98;;;13.90;99.90;;;;;;5044769;28;20036;-77
2021/09/26 05:34:09;;;;;;;12.07;10.88;;;13.90;99.90;;;;;;5042053;28;20069;-76
2021/09/26 05:36:35;;;;;;;11.98;10.27;;;13.90;99.90;;;;;;5038086;28;20480;-76
2021/09/26 05:39:01;;;;;;;13.50;10.48;;;14.00;99.90;;;;;;5041284;28;20033;-76
2021/09/26 05:41:26;;;;;;;12.63;11.32;;;14.00;99.90;;;;;;5034668;28;20059;-77
2021/09/26 05:43:52;;;;;;;15.48;11.10;;;13.90;99.90;;;;;;5041467;28;20033;-76
2021/09/26 05:46:17;;;;;;;12.77;11.43;;;13.90;99.90;;;;;;5044787;28;20112;-77
2021/09/26 05:48:43;;;;;;;16.30;12.43;;;13.90;99.90;;;;;;5041052;28;20453;-76
2021/09/26 05:51:08;;;;;;;14.13;11.93;;;13.80;99.90;;;;;;5064802;28;20477;-76
2021/09/26 05:53:34;;;;;;;14.00;11.73;;;13.70;99.90;;;;;;5040499;28;20037;-75
2021/09/26 05:56:00;;;;;;;14.50;12.68;;;13.70;99.90;;;;;;5026844;28;20034;-76
2021/09/26 05:58:25;;;;;;;18.98;13.27;;;13.80;99.90;;;;;;5042216;28;20071;-76
2021/09/26 06:00:51;;;;;;;16.42;12.63;;;13.70;99.90;;;;;;5037648;28;20057;-76
2021/09/26 06:03:17;;;;;;;13.15;11.80;;;13.60;99.90;;;;;;5040455;28;20030;-75
2021/09/26 06:05:43;;;;;;;15.88;12.57;;;13.60;99.90;;;;;;5022637;28;20036;-76
2021/09/26 06:08:10;;;;;;;14.07;11.75;;;13.60;99.90;;;;;;5051119;28;20021;-76
2021/09/26 06:10:36;;;;;;;16.42;13.32;;;13.60;99.90;;;;;;5037831;28;20025;-76
2021/09/26 06:13:02;;;;;;;15.18;13.57;;;13.60;99.90;;;;;;5040002;28;20570;-76
2021/09/26 06:15:30;;;;;;;15.45;13.43;;;13.70;99.90;;;;;;5044708;28;20105;-76
2021/09/26 06:17:59;;;;;;;16.42;13.18;;;13.80;99.90;;;;;;5024638;28;20025;-76
2021/09/26 06:20:25;;;;;;;14.25;12.75;;;13.90;99.90;;;;;;5037727;28;20025;-73
2021/09/26 06:22:50;;;;;;;15.50;13.73;;;13.90;99.90;;;;;;5039105;28;20044;-76
2021/09/26 06:25:16;;;;;;;18.58;13.50;;;13.80;99.90;;;;;;5044559;28;20036;-76
2021/09/26 06:27:41;;;;;;;15.38;12.48;;;13.80;99.90;;;;;;5045243;28;20533;-75
2021/09/26 06:30:10;;;;;;;15.65;13.13;;;14.00;99.90;;;;;;5023370;28;20391;-75
2021/09/26 06:32:35;;;;;;;15.27;12.30;;;14.10;99.90;;;;;;5036543;28;20025;-75
2021/09/26 06:35:04;;;;;;;16.02;12.20;;;14.10;99.90;;;;;;5041098;28;20043;-76
2021/09/26 06:37:29;;;;;;;14.63;10.88;;;14.20;99.90;;;;;;5042599;28;20030;-75
2021/09/26 06:39:56;;;;;;;13.77;11.60;;;14.30;99.90;;;;;;5047903;28;20112;-76
2021/09/26 06:42:22;;;;;;;12.45;10.60;;;14.30;99.90;;;;;;5034153;28;20029;-76
2021/09/26 06:44:48;;;;;;;12.10;10.90;;;14.40;99.90;;;;;;5039850;28;20075;-76
2021/09/26 06:47:14;;;;;;;12.45;11.10;;;14.50;99.90;;;;;;5042255;28;20026;-76
2021/09/26 06:49:40;;;;;;;12.38;11.05;;;14.60;99.90;;;;;;5047186;28;20032;-76
2021/09/26 06:52:06;;;;;;;11.73;10.52;;;14.60;99.90;;;;;;5034168;28;20528;-76
2021/09/26 06:54:31;;;;;;;13.95;11.40;;;14.70;99.90;;;;;;5052935;28;20025;-72
2021/09/26 06:56:57;;;;;;;13.23;11.20;;;14.90;99.90;;;;;;5042273;28;20029;-74
2021/09/26 06:59:22;;;;;;;12.70;11.18;;;15.00;99.90;;;;;;5047265;28;20088;-76
2021/09/26 07:01:48;;;;;;;13.70;11.13;;;15.00;99.90;;;;;;5045810;28;20078;-73
2021/09/26 07:04:13;;;;;;;12.48;10.95;;;15.00;99.90;;;;;;5048508;28;20041;-76
2021/09/26 07:06:39;;;;;;;11.73;10.48;;;15.10;99.90;;;;;;5044509;28;20108;-76
2021/09/26 07:09:05;;;;;;;12.77;10.68;;;15.30;99.90;;;;;;5021648;28;20024;-76
2021/09/26 07:11:30;;;;;;;12.85;11.45;;;15.40;99.90;;;;;;5041855;28;20372;-76
2021/09/26 07:13:56;;;;;;;14.35;10.25;;;15.50;99.90;;;;;;5047272;28;20037;-76
2021/09/26 07:16:22;;;;;;;11.63;10.18;;;15.60;99.90;;;;;;5045543;28;20060;-76
2021/09/26 07:18:48;;;;;;;13.77;11.00;;;15.70;99.90;;;;;;5048788;28;20031;-76
2021/09/26 07:21:15;;;;;;;12.25;10.50;;;15.80;99.90;;;;;;5045042;28;20033;-76
2021/09/26 07:23:41;;;;;;;14.27;10.73;;;15.90;99.90;;;;;;5039921;28;20024;-76
2021/09/26 07:26:07;;;;;;;12.52;10.35;;;15.90;99.90;;;;;;5024244;28;20021;-76
2021/09/26 07:28:32;;;;;;;11.23;10.05;;;16.10;99.90;;;;;;5051755;28;20072;-75
2021/09/26 07:30:58;;;;;;;13.25;10.27;;;16.20;99.90;;;;;;5041891;28;20086;-76
2021/09/26 07:33:23;;;;;;;10.88;9.18;;;16.40;99.90;;;;;;5046950;28;20025;-76
2021/09/26 07:35:49;;;;;;;12.40;10.05;;;16.40;99.90;;;;;;5026927;28;20372;-76
2021/09/26 07:38:15;;;;;;;13.30;10.38;;;16.60;99.90;;;;;;5038874;28;20025;-76
2021/09/26 07:40:41;;;;;;;12.15;9.73;;;16.60;99.90;;;;;;5041265;28;20040;-76
2021/09/26 07:43:06;;;;;;;12.20;10.40;;;16.60;99.90;;;;;;5050965;28;20044;-77
2021/09/26 07:45:33;;;;;;;15.82;9.70;;;16.60;99.90;;;;;;5053287;28;20025;-76
2021/09/26 07:47:58;;;;;;;11.90;9.40;;;16.70;99.90;;;;;;5022030;28;20075;-76
2021/09/26 07:50:26;;;;;;;10.88;9.45;;;16.60;99.90;;;;;;5041622;28;20025;-76
2021/09/26 07:52:55;;;;;;;10.63;9.52;;;16.70;99.90;;;;;;5026028;28;20022;-72
2021/09/26 07:55:21;;;;;;;12.65;10.15;;;16.70;99.90;;;;;;5043086;28;20063;-76
2021/09/26 07:57:47;;;;;;;10.38;9.27;;;16.90;99.90;;;;;;5047558;28;20030;-76
2021/09/26 08:00:13;;;;;;;11.57;9.32;;;17.10;99.90;;;;;;5027118;28;20017;-76
2021/09/26 08:02:40;;;;;;;12.32;9.93;;;17.20;99.90;;;;;;5039201;28;20544;-76
2021/09/26 08:05:06;;;;;;;12.40;9.80;;;17.10;99.90;;;;;;5041324;28;20072;-75
2021/09/26 08:07:33;;;;;;;10.95;9.02;;;17.10;99.90;;;;;;5046459;28;20021;-76
2021/09/26 08:09:59;;;;;;;14.07;9.27;;;17.20;99.90;;;;;;5044489;28;20075;-76
2021/09/26 08:12:25;;;;;;;11.05;9.57;;;17.30;99.90;;;;;;5033845;28;20060;-76
2021/09/26 08:14:51;;;;;;;11.50;9.13;;;17.40;99.90;;;;;;5014983;28;20061;-75
2021/09/26 08:17:17;;;;;;;11.70;9.02;;;17.50;99.90;;;;;;5046231;28;20025;-76
2021/09/26 08:19:43;;;;;;;11.20;9.55;;;17.50;99.90;;;;;;5044007;28;20064;-76
2021/09/26 08:22:08;;;;;;;12.63;9.02;;;17.90;99.90;;;;;;5020947;28;20055;-75
2021/09/26 08:24:35;;;;;;;10.95;9.02;;;17.90;99.90;;;;;;5041238;28;20033;-75
2021/09/26 08:27:02;;;;;;;10.18;9.07;;;17.90;99.90;;;;;;5028032;28;20052;-75
2021/09/26 08:29:28;;;;;;;9.95;8.55;;;18.10;99.90;;;;;;5032467;28;20030;-75
2021/09/26 08:31:54;;;;;;;12.13;9.32;;;18.20;99.90;;;;;;5027929;28;20036;-76
2021/09/26 08:34:20;;;;;;;9.90;8.93;;;18.30;99.90;;;;;;5025830;28;20052;-77
2021/09/26 08:36:46;;;;;;;10.05;9.02;;;18.30;99.90;;;;;;5038948;28;20467;-75
2021/09/26 08:39:11;;;;;;;9.55;8.55;;;18.40;99.90;;;;;;5040846;28;20036;-76
2021/09/26 08:41:37;;;;;;;10.50;9.20;;;18.50;99.90;;;;;;5027347;28;20032;-76
2021/09/26 08:44:04;;;;;;;10.60;8.93;;;18.50;99.90;;;;;;5025930;28;20053;-75
2021/09/26 08:46:31;;;;;;;9.75;8.60;;;18.60;99.90;;;;;;5020982;28;20032;-76
2021/09/26 08:48:57;;;;;;;9.50;8.27;;;18.70;99.90;;;;;;5039962;28;20480;-75
2021/09/26 08:51:22;;;;;;;10.40;8.57;;;18.90;99.90;;;;;;5046825;28;20029;-76
2021/09/26 08:53:48;;;;;;;10.40;8.13;;;19.00;99.90;;;;;;5039126;28;20035;-76
2021/09/26 08:56:17;;;;;;;9.45;8.43;;;19.20;99.90;;;;;;5045333;28;20392;-75
2021/09/26 08:58:43;;;;;;;10.48;9.07;;;19.30;99.90;;;;;;5044971;28;20108;-76
2021/09/26 09:01:08;;;;;;;9.57;8.50;;;19.40;99.90;;;;;;5014472;28;20119;-76
2021/09/26 09:03:34;;;;;;;22.08;15.13;;;19.50;99.90;;;;;;5044454;28;20029;-75
2021/09/26 09:05:59;;;;;;;10.48;8.30;;;19.70;99.90;;;;;;5038549;28;20025;-76
2021/09/26 09:08:25;;;;;;;11.80;8.60;;;19.70;99.90;;;;;;5039059;28;20030;-76
2021/09/26 09:10:54;;;;;;;10.13;8.25;;;19.80;99.90;;;;;;5037585;28;20078;-76
2021/09/26 09:13:42;;;;;;;12.52;9.48;;;19.80;99.90;;;;;;5021144;28;20036;-75
2021/09/26 09:16:13;;;;;;;9.80;7.65;;;19.90;99.90;;;;;;5020353;28;20021;-76
2021/09/26 09:18:43;;;;;;;15.10;11.48;;;20.10;99.90;;;;;;5027509;28;20033;-76
2021/09/26 09:21:30;;;;;;;8.40;7.60;;;20.20;99.90;;;;;;5042215;28;20475;-75
2021/09/26 09:24:14;;;;;;;;;;;20.10;99.90;;;;;;5038765;28;20491;-76
2021/09/26 09:26:43;;;;;;;8.75;7.85;;;20.20;99.90;;;;;;5020438;28;19915;-75
2021/09/26 09:29:09;;;;;;;8.95;7.80;;;20.30;99.90;;;;;;5042092;28;20025;-76
2021/09/26 09:31:50;;;;;;;17.15;12.80;;;20.50;99.90;;;;;;5044648;28;20028;-75
2021/09/26 09:34:31;;;;;;;11.25;8.77;;;20.60;99.90;;;;;;5043349;28;20091;-76
2021/09/26 09:37:17;;;;;;;9.60;7.68;;;20.50;99.90;;;;;;5038858;28;20029;-76
2021/09/26 09:40:10;;;;;;;8.43;7.43;;;20.70;99.90;;;;;;5038190;28;20029;-76
2021/09/26 09:42:46;;;;;;;10.20;7.65;;;20.60;99.90;;;;;;5007959;28;20049;-76
2021/09/26 09:45:28;;;;;;;10.52;8.18;;;20.50;99.90;;;;;;5043413;28;20386;-76
2021/09/26 09:48:21;;;;;;;9.90;7.60;;;20.70;99.90;;;;;;5044901;28;20017;-77
2021/09/26 09:51:00;;;;;;;9.25;7.50;;;20.70;99.90;;;;;;5015065;28;20028;-76
2021/09/26 09:53:39;;;;;;;9.63;7.45;;;20.90;99.90;;;;;;5023786;28;20022;-75
2021/09/26 09:56:18;;;;;;;10.73;7.80;;;21.20;99.90;;;;;;5036239;28;20032;-75
2021/09/26 09:58:56;;;;;;;8.73;7.82;;;21.20;99.90;;;;;;5038275;28;20036;-75
2021/09/26 10:01:27;;;;;;;9.13;7.65;;;21.30;99.90;;;;;;5040949;28;20021;-76
2021/09/26 10:03:55;;;;;;;10.05;7.82;;;21.20;99.90;;;;;;5041592;28;20030;-76
2021/09/26 10:06:44;;;;;;;9.23;7.55;;;21.10;99.90;;;;;;5046407;28;20387;-75
2021/09/26 10:09:27;;;;;;;7.70;6.88;;;21.20;99.90;;;;;;5040270;28;20126;-76
2021/09/26 10:11:59;;;;;;;8.57;7.65;;;21.40;99.90;;;;;;5036686;28;20021;-75
2021/09/26 10:14:33;;;;;;;9.77;8.40;;;21.60;99.90;;;;;;5054721;28;20109;-75
2021/09/26 10:17:01;;;;;;;9.95;8.00;;;21.70;99.90;;;;;;5054865;28;20052;-75
2021/09/26 10:19:28;;;;;;;10.20;7.80;;;21.80;99.90;;;;;;5054658;28;20028;-75
2021/09/26 10:21:56;;;;;;;10.73;7.97;;;21.80;99.90;;;;;;5038773;28;20022;-76
2021/09/26 10:24:24;;;;;;;7.80;7.05;;;21.80;99.90;;;;;;5034670;28;20430;-73
2021/09/26 10:26:51;;;;;;;9.85;7.82;;;21.80;99.90;;;;;;5034734;28;20559;-75
2021/09/26 10:29:20;;;;;;;9.02;7.32;;;21.90;99.90;;;;;;5044580;28;20021;-75
2021/09/26 10:31:47;;;;;;;8.30;7.25;;;22.00;99.90;;;;;;5023119;28;20025;-73
2021/09/26 10:34:14;;;;;;;9.30;7.22;;;22.30;99.90;;;;;;5054307;28;20017;-75
2021/09/26 10:36:41;;;;;;;9.70;8.07;;;22.20;99.90;;;;;;5045569;28;20057;-75
2021/09/26 10:39:08;;;;;;;11.85;7.72;;;22.30;99.90;;;;;;5014278;28;20572;-75
2021/09/26 10:41:34;;;;;;;10.00;7.53;;;22.40;99.90;;;;;;5033313;28;20033;-75
2021/09/26 10:44:23;;;;;;;10.48;7.78;;;22.40;99.90;;;;;;5016559;28;20108;-75
2021/09/26 10:47:16;;;;;;;9.05;6.97;;;22.40;99.90;;;;;;5034298;28;20027;-75
2021/09/26 10:49:46;;;;;;;8.50;7.13;;;22.60;99.90;;;;;;5039956;28;20467;-75
2021/09/26 10:52:26;;;;;;;11.55;7.55;;;22.50;99.90;;;;;;5053785;28;20029;-75
2021/09/26 10:54:52;;;;;;;8.35;7.43;;;22.70;99.90;;;;;;5035981;28;20036;-75
2021/09/26 10:57:21;;;;;;;9.73;7.50;;;22.80;99.90;;;;;;5040166;28;20060;-75
2021/09/26 10:59:52;;;;;;;10.57;7.07;;;22.80;99.90;;;;;;5034055;28;20025;-75
2021/09/26 11:02:24;;;;;;;9.25;6.95;;;23.00;99.90;;;;;;5036512;28;20104;-75
2021/09/26 11:04:52;;;;;;;11.70;7.60;;;23.20;99.90;;;;;;5025519;28;20033;-75
2021/09/26 11:07:29;;;;;;;9.07;7.10;;;23.00;99.90;;;;;;5015955;28;20025;-75
2021/09/26 11:09:59;;;;;;;10.77;7.70;;;22.90;99.90;;;;;;5034067;28;20422;-75
2021/09/26 11:12:38;;;;;;;8.57;7.68;;;22.90;99.90;;;;;;5033197;28;20375;-75
2021/09/26 11:15:20;;;;;;;8.18;7.05;;;22.80;99.90;;;;;;5015823;28;20072;-75
2021/09/26 11:17:49;;;;;;;9.50;7.28;;;22.90;99.90;;;;;;5034104;28;20033;-75
2021/09/26 11:20:30;;;;;;;9.77;7.18;;;23.30;99.90;;;;;;5033775;28;20029;-75
2021/09/26 11:23:08;;;;;;;9.00;7.53;;;23.50;99.90;;;;;;5015518;28;20022;-75
2021/09/26 11:25:55;;;;;;;10.48;7.15;;;23.50;99.90;;;;;;5040167;28;20418;-75
2021/09/26 11:28:39;;;;;;;8.73;7.55;;;23.40;99.90;;;;;;5053300;28;20025;-75
2021/09/26 11:31:24;;;;;;;8.18;7.00;;;23.40;99.90;;;;;;5035282;28;20059;-75
2021/09/26 11:33:59;;;;;;;9.80;7.25;;;23.50;99.90;;;;;;5035437;28;20021;-75
2021/09/26 11:36:27;;;;;;;10.65;6.90;;;23.50;99.90;;;;;;5053040;28;20036;-75
2021/09/26 11:38:54;;;;;;;10.50;6.45;;;23.70;99.90;;;;;;5053187;28;20025;-75
2021/09/26 11:41:37;;;;;;;7.95;6.72;;;23.70;99.90;;;;;;5052820;28;20055;-75
2021/09/26 11:44:05;;;;;;;7.97;7.05;;;23.90;99.90;;;;;;5053015;28;20474;-75
2021/09/26 11:46:31;;;;;;;8.32;6.63;;;24.30;99.90;;;;;;5053116;28;20033;-75
2021/09/26 11:49:04;;;;;;;11.45;6.38;;;24.80;99.90;;;;;;5052941;28;20395;-75
2021/09/26 11:51:31;;;;;;;8.38;6.10;;;25.10;99.90;;;;;;5033061;28;20514;-76
2021/09/26 11:53:57;;;;;;;8.77;6.55;;;25.10;99.90;;;;;;5032846;28;20471;-76
2021/09/26 11:56:27;;;;;;;8.02;6.65;;;25.20;99.90;;;;;;5032842;28;20021;-76
2021/09/26 11:58:55;;;;;;;7.95;6.32;;;25.10;99.90;;;;;;5015116;28;20037;-76
2021/09/26 12:01:38;;;;;;;9.05;6.10;;;25.30;99.90;;;;;;5033017;28;20033;-76
2021/09/26 12:04:08;;;;;;;7.35;6.50;;;24.80;99.90;;;;;;5014741;28;20041;-76
2021/09/26 12:06:34;;;;;;;7.32;6.63;;;24.70;99.90;;;;;;5032690;28;20475;-76
2021/09/26 12:09:00;;;;;;;7.57;6.35;;;24.90;99.90;;;;;;5014826;28;20031;-76
2021/09/26 12:11:25;;;;;;;6.50;5.90;;;25.20;99.90;;;;;;5032477;28;20097;-76
2021/09/26 12:13:56;;;;;;;8.18;6.20;;;25.40;99.90;;;;;;5014583;28;20030;-76
2021/09/26 12:16:23;;;;;;;7.05;6.35;;;25.80;99.90;;;;;;5032515;28;20105;-76
2021/09/26 12:18:53;;;;;;;8.07;6.72;;;26.00;99.90;;;;;;5014671;28;20022;-76
2021/09/26 12:21:20;;;;;;;7.18;6.47;;;26.30;99.90;;;;;;5032159;28;20553;-76
2021/09/26 12:24:02;;;;;;;7.38;6.55;;;26.30;99.90;;;;;;5032278;28;20037;-76
2021/09/26 12:26:39;;;;;;;9.15;6.97;;;26.00;99.90;;;;;;5032064;28;20021;-76
2021/09/26 12:29:06;;;;;;;9.48;6.90;;;26.30;99.90;;;;;;5032586;28;20109;-76
2021/09/26 12:31:35;;;;;;;6.55;5.95;;;27.10;99.90;;;;;;5014199;28;20547;-77
2021/09/26 12:34:01;;;;;;;8.52;5.80;;;27.80;99.90;;;;;;5014462;28;20063;-76
2021/09/26 12:36:31;;;;;;;6.90;6.30;;;28.00;99.90;;;;;;5014327;28;20448;-76
2021/09/26 12:38:58;;;;;;;7.03;6.22;;;27.90;99.90;;;;;;5014347;28;20399;-76
2021/09/26 12:41:31;;;;;;;8.75;6.93;;;27.80;99.90;;;;;;5014080;28;20029;-76
2021/09/26 12:44:01;;;;;;;6.97;6.28;;;27.00;99.90;;;;;;5032221;28;20052;-76